Aeroporto :
LOGIN :

Iscrizione | Disclaimer

   EN    FR    IT 

 










Sommario :    VFR   VFR Marginale   IFR   IFR Intensivo   IFR Molto Intensivo
Visibilità : 
Base nubi : 
>= 8 km
>= 3000ft
5 / 8 km
1000 / 3000 ft
1500m / 5 km
500 / 1000 ft
800 / 1500m
200 / 500 ft
< 800m
< 200 ft
Simboli :   Temporali  Nebbia  Neve Forte  Precipitazioni Forti  Vento > 20 kt
SIGMETs :   Varie  Temporali  Ghiacco  Turbolenza  Onda orograficha  Ceneri Vulcaniche







- Altitudine del aeroporto : 359 ft
- Codice IATA : BVA
- Carte del aeroporto


LFOB - Beauvais

ULTIMO METAR :
  • 192300Z AUTO 00000KT CAVOK 02/01 Q1022 NOSIG

METARs OBSOLETI :
  • 192230Z AUTO 00000KT CAVOK 04/03 Q1022 NOSIG
  • 192200Z AUTO 00000KT 9999 NSC 04/03 Q1022 NOSIG
  • 192130Z AUTO 00000KT CAVOK 04/02 Q1022 NOSIG
  • 192100Z AUTO 19003KT CAVOK 04/03 Q1022 NOSIG
  • 192030Z AUTO 20003KT CAVOK 04/02 Q1022 NOSIG

TAF TAF LFOB
Valido dal 19 a 18 ore il 20 a 18 ore UTC


191700Z 1918/2018 27007KT 9999 BKN030
BECMG 2002/2005 4000 BR BKN008
PROB30
TEMPO 2005/2009 0500 FG VV///
BECMG 2010/2012 8000 NSW SCT015
ATIS : +33 3 44 11 49 28
Nessun NOTAM noto per questo aeroporto.



MetMap, La meteo Aeronautica in un colpo d'occhio ! - Copyright ORBIFLY Dicembre 2007 - Disclaimer

ORBIFLY MET'MAP TEAM :

Programmazione e sviluppo : Alexandra Zaïnal
Concezione e sviluppo : Baudouin d'Aumeries
Co-Programmazione e sviluppo : Marc-Olivier Méhu
Supporto tecnico e logistico : Manuel Goepfert
Aiuto per la traduzione : Arnaldo La Scala

Contatto : metmap@orbifly.com




FONTI E CREDITI :

   NOAA